sensor_id;sensor_type;location;lat;lon;timestamp;pressure;altitude;pressure_sealevel;temperature;humidity
85082;BME280;75424;50.762;7.178;2024-01-25T00:01:37;102058.84;;;9.18;77.12
85082;BME280;75424;50.762;7.178;2024-01-25T00:04:03;102057.13;;;9.17;77.31
85082;BME280;75424;50.762;7.178;2024-01-25T00:06:28;102055.38;;;9.16;77.80
85082;BME280;75424;50.762;7.178;2024-01-25T00:08:53;102050.81;;;9.25;76.76
85082;BME280;75424;50.762;7.178;2024-01-25T00:11:19;102052.53;;;9.28;77.01
85082;BME280;75424;50.762;7.178;2024-01-25T00:13:44;102053.44;;;9.25;77.83
85082;BME280;75424;50.762;7.178;2024-01-25T00:16:09;102057.88;;;9.23;77.52
85082;BME280;75424;50.762;7.178;2024-01-25T00:18:35;102046.50;;;9.17;78.02
85082;BME280;75424;50.762;7.178;2024-01-25T00:21:00;102036.84;;;9.13;77.95
85082;BME280;75424;50.762;7.178;2024-01-25T00:23:26;102038.75;;;9.05;78.24
85082;BME280;75424;50.762;7.178;2024-01-25T00:25:52;102037.84;;;9.06;78.42
85082;BME280;75424;50.762;7.178;2024-01-25T00:28:17;102032.66;;;9.00;78.83
85082;BME280;75424;50.762;7.178;2024-01-25T00:30:43;102053.75;;;9.06;78.48
85082;BME280;75424;50.762;7.178;2024-01-25T00:33:08;102051.13;;;9.04;78.96
85082;BME280;75424;50.762;7.178;2024-01-25T00:35:34;102044.06;;;9.05;78.70
85082;BME280;75424;50.762;7.178;2024-01-25T00:37:59;102053.84;;;9.01;78.87
85082;BME280;75424;50.762;7.178;2024-01-25T00:40:25;102057.34;;;9.02;79.17
85082;BME280;75424;50.762;7.178;2024-01-25T00:42:51;102050.25;;;9.05;79.19
85082;BME280;75424;50.762;7.178;2024-01-25T00:45:21;102053.78;;;9.03;79.09
85082;BME280;75424;50.762;7.178;2024-01-25T00:47:47;102051.13;;;9.03;79.47
85082;BME280;75424;50.762;7.178;2024-01-25T00:50:13;102048.56;;;8.98;79.53
85082;BME280;75424;50.762;7.178;2024-01-25T00:52:39;102060.00;;;9.00;79.10
85082;BME280;75424;50.762;7.178;2024-01-25T00:55:05;102064.47;;;9.00;78.63
85082;BME280;75424;50.762;7.178;2024-01-25T00:57:31;102054.81;;;8.96;79.46
85082;BME280;75424;50.762;7.178;2024-01-25T00:59:57;102069.81;;;8.97;79.67
85082;BME280;75424;50.762;7.178;2024-01-25T01:02:23;102069.75;;;9.01;78.93
85082;BME280;75424;50.762;7.178;2024-01-25T01:04:49;102079.44;;;9.04;79.38
85082;BME280;75424;50.762;7.178;2024-01-25T01:07:15;102073.16;;;9.09;78.77
85082;BME280;75424;50.762;7.178;2024-01-25T01:09:40;102074.13;;;9.04;79.20
85082;BME280;75424;50.762;7.178;2024-01-25T01:12:06;102079.41;;;9.05;79.28
85082;BME280;75424;50.762;7.178;2024-01-25T01:14:32;102093.63;;;9.00;79.40
85082;BME280;75424;50.762;7.178;2024-01-25T01:16:58;102079.59;;;8.92;79.65
85082;BME280;75424;50.762;7.178;2024-01-25T01:19:23;102084.06;;;8.88;80.12
85082;BME280;75424;50.762;7.178;2024-01-25T01:21:49;102098.19;;;8.89;80.01
85082;BME280;75424;50.762;7.178;2024-01-25T01:24:14;102107.09;;;8.85;80.35
85082;BME280;75424;50.762;7.178;2024-01-25T01:26:40;102098.22;;;8.86;80.02
85082;BME280;75424;50.762;7.178;2024-01-25T01:29:07;102081.44;;;8.84;80.74
85082;BME280;75424;50.762;7.178;2024-01-25T01:31:33;102104.56;;;8.74;80.41
85082;BME280;75424;50.762;7.178;2024-01-25T01:33:58;102117.78;;;8.76;80.48
85082;BME280;75424;50.762;7.178;2024-01-25T01:36:23;102111.72;;;8.66;81.44
85082;BME280;75424;50.762;7.178;2024-01-25T01:38:49;102104.72;;;8.62;81.04
85082;BME280;75424;50.762;7.178;2024-01-25T01:41:15;102109.06;;;8.68;80.64
85082;BME280;75424;50.762;7.178;2024-01-25T01:43:40;102113.53;;;8.63;81.67
85082;BME280;75424;50.762;7.178;2024-01-25T01:49:00;102110.28;;;8.40;82.25
85082;BME280;75424;50.762;7.178;2024-01-25T01:51:26;102113.84;;;8.37;82.21
85082;BME280;75424;50.762;7.178;2024-01-25T01:53:53;102111.22;;;8.37;82.85
85082;BME280;75424;50.762;7.178;2024-01-25T01:56:19;102119.97;;;8.42;81.88
85082;BME280;75424;50.762;7.178;2024-01-25T01:58:45;102125.38;;;8.33;82.00
85082;BME280;75424;50.762;7.178;2024-01-25T02:01:13;102116.59;;;8.28;83.09
85082;BME280;75424;50.762;7.178;2024-01-25T02:03:38;102113.06;;;8.28;82.62
85082;BME280;75424;50.762;7.178;2024-01-25T02:06:04;102116.66;;;8.22;82.83
85082;BME280;75424;50.762;7.178;2024-01-25T02:08:29;102111.41;;;8.13;83.31
85082;BME280;75424;50.762;7.178;2024-01-25T02:10:55;102109.91;;;7.88;83.97
85082;BME280;75424;50.762;7.178;2024-01-25T02:13:21;102119.63;;;7.86;84.40
85082;BME280;75424;50.762;7.178;2024-01-25T02:15:47;102109.06;;;7.82;84.43
85082;BME280;75424;50.762;7.178;2024-01-25T02:18:12;102119.63;;;7.85;85.08
85082;BME280;75424;50.762;7.178;2024-01-25T02:20:38;102111.72;;;7.80;85.38
85082;BME280;75424;50.762;7.178;2024-01-25T02:23:03;102104.78;;;7.67;85.24
85082;BME280;75424;50.762;7.178;2024-01-25T02:25:28;102111.94;;;7.56;85.49
85082;BME280;75424;50.762;7.178;2024-01-25T02:27:54;102115.41;;;7.62;85.92
85082;BME280;75424;50.762;7.178;2024-01-25T02:30:19;102133.91;;;7.64;85.63
85082;BME280;75424;50.762;7.178;2024-01-25T02:32:44;102127.78;;;7.57;86.27
85082;BME280;75424;50.762;7.178;2024-01-25T02:35:10;102122.53;;;7.51;85.80
85082;BME280;75424;50.762;7.178;2024-01-25T02:37:35;102123.47;;;7.44;86.50
85082;BME280;75424;50.762;7.178;2024-01-25T02:40:00;102131.47;;;7.40;86.29
85082;BME280;75424;50.762;7.178;2024-01-25T02:42:26;102136.72;;;7.43;86.36
85082;BME280;75424;50.762;7.178;2024-01-25T02:44:51;102142.94;;;7.36;87.17
85082;BME280;75424;50.762;7.178;2024-01-25T02:47:16;102143.78;;;7.38;87.15
85082;BME280;75424;50.762;7.178;2024-01-25T02:49:42;102142.06;;;7.31;87.41
85082;BME280;75424;50.762;7.178;2024-01-25T02:52:07;102145.63;;;7.30;87.09
85082;BME280;75424;50.762;7.178;2024-01-25T02:54:36;102151.88;;;7.18;87.79
85082;BME280;75424;50.762;7.178;2024-01-25T02:57:04;102158.91;;;7.19;88.02
85082;BME280;75424;50.762;7.178;2024-01-25T02:59:30;102152.72;;;7.25;87.71
85082;BME280;75424;50.762;7.178;2024-01-25T03:01:55;102154.47;;;7.20;88.04
85082;BME280;75424;50.762;7.178;2024-01-25T03:04:20;102161.56;;;7.12;87.94
85082;BME280;75424;50.762;7.178;2024-01-25T03:06:46;102152.72;;;7.17;88.28
85082;BME280;75424;50.762;7.178;2024-01-25T03:09:11;102150.00;;;7.34;87.48
85082;BME280;75424;50.762;7.178;2024-01-25T03:11:36;102152.69;;;7.28;87.86
85082;BME280;75424;50.762;7.178;2024-01-25T03:14:02;102148.31;;;7.21;88.21
85082;BME280;75424;50.762;7.178;2024-01-25T03:16:27;102142.16;;;7.19;88.58
85082;BME280;75424;50.762;7.178;2024-01-25T03:18:52;102143.03;;;7.24;88.67
85082;BME280;75424;50.762;7.178;2024-01-25T03:21:18;102150.06;;;7.26;87.93
85082;BME280;75424;50.762;7.178;2024-01-25T03:23:43;102141.31;;;7.12;89.01
85082;BME280;75424;50.762;7.178;2024-01-25T03:26:08;102145.75;;;7.09;89.16
85082;BME280;75424;50.762;7.178;2024-01-25T03:28:34;102147.56;;;6.96;89.60
85082;BME280;75424;50.762;7.178;2024-01-25T03:31:01;102144.09;;;6.90;89.66
85082;BME280;75424;50.762;7.178;2024-01-25T03:33:26;102152.88;;;6.89;90.73
85082;BME280;75424;50.762;7.178;2024-01-25T03:35:53;102147.59;;;6.86;90.20
85082;BME280;75424;50.762;7.178;2024-01-25T03:38:18;102147.59;;;6.93;90.11
85082;BME280;75424;50.762;7.178;2024-01-25T03:40:44;102147.59;;;6.89;90.43
85082;BME280;75424;50.762;7.178;2024-01-25T03:43:09;102149.38;;;6.87;90.35
85082;BME280;75424;50.762;7.178;2024-01-25T03:45:34;102152.03;;;6.87;90.10
85082;BME280;75424;50.762;7.178;2024-01-25T03:48:00;102151.13;;;6.82;90.23
85082;BME280;75424;50.762;7.178;2024-01-25T03:50:26;102152.03;;;6.84;90.17
85082;BME280;75424;50.762;7.178;2024-01-25T03:52:52;102151.19;;;6.67;91.03
85082;BME280;75424;50.762;7.178;2024-01-25T03:55:17;102155.63;;;6.62;91.81
85082;BME280;75424;50.762;7.178;2024-01-25T03:57:42;102162.69;;;6.57;91.97
85082;BME280;75424;50.762;7.178;2024-01-25T04:00:09;102157.41;;;6.58;91.86
85082;BME280;75424;50.762;7.178;2024-01-25T04:02:34;102160.06;;;6.57;91.81
85082;BME280;75424;50.762;7.178;2024-01-25T04:05:00;102158.34;;;6.36;92.18
85082;BME280;75424;50.762;7.178;2024-01-25T04:07:25;102169.78;;;6.26;92.54
85082;BME280;75424;50.762;7.178;2024-01-25T04:09:50;102174.22;;;6.17;93.22
85082;BME280;75424;50.762;7.178;2024-01-25T04:12:16;102188.28;;;6.07;93.54
85082;BME280;75424;50.762;7.178;2024-01-25T04:14:41;102199.72;;;6.21;93.70
85082;BME280;75424;50.762;7.178;2024-01-25T04:17:06;102192.63;;;6.44;92.44
85082;BME280;75424;50.762;7.178;2024-01-25T04:19:32;102194.38;;;6.46;92.35
85082;BME280;75424;50.762;7.178;2024-01-25T04:21:57;102195.28;;;6.50;91.87
85082;BME280;75424;50.762;7.178;2024-01-25T04:24:22;102200.53;;;6.59;91.58
85082;BME280;75424;50.762;7.178;2024-01-25T04:26:48;102202.28;;;6.66;91.50
85082;BME280;75424;50.762;7.178;2024-01-25T04:29:13;102193.50;;;6.62;91.60
85082;BME280;75424;50.762;7.178;2024-01-25T04:31:45;102198.78;;;6.65;91.57
85082;BME280;75424;50.762;7.178;2024-01-25T04:34:12;102197.00;;;6.72;91.26
85082;BME280;75424;50.762;7.178;2024-01-25T04:36:38;102197.84;;;6.80;90.84
85082;BME280;75424;50.762;7.178;2024-01-25T04:39:03;102190.81;;;6.77;90.53
85082;BME280;75424;50.762;7.178;2024-01-25T04:41:29;102193.44;;;6.76;90.86
85082;BME280;75424;50.762;7.178;2024-01-25T04:43:54;102192.59;;;6.68;91.17
85082;BME280;75424;50.762;7.178;2024-01-25T04:46:20;102194.34;;;6.70;91.42
85082;BME280;75424;50.762;7.178;2024-01-25T04:48:45;102195.25;;;6.69;91.31
85082;BME280;75424;50.762;7.178;2024-01-25T04:51:18;102192.63;;;6.50;91.93
85082;BME280;75424;50.762;7.178;2024-01-25T04:53:45;102188.25;;;6.41;92.50
85082;BME280;75424;50.762;7.178;2024-01-25T04:56:10;102181.22;;;6.39;92.56
85082;BME280;75424;50.762;7.178;2024-01-25T04:58:36;102188.28;;;6.29;92.04
85082;BME280;75424;50.762;7.178;2024-01-25T05:01:01;102189.13;;;6.31;92.98
85082;BME280;75424;50.762;7.178;2024-01-25T05:03:26;102192.69;;;6.24;93.05
85082;BME280;75424;50.762;7.178;2024-01-25T05:05:52;102192.69;;;6.08;93.34
85082;BME280;75424;50.762;7.178;2024-01-25T05:08:17;102192.72;;;5.96;93.84
85082;BME280;75424;50.762;7.178;2024-01-25T05:10:42;102192.69;;;5.91;94.08
85082;BME280;75424;50.762;7.178;2024-01-25T05:13:08;102197.03;;;5.73;94.40
85082;BME280;75424;50.762;7.178;2024-01-25T05:15:34;102201.44;;;5.66;94.44
85082;BME280;75424;50.762;7.178;2024-01-25T05:18:00;102205.81;;;5.60;95.16
85082;BME280;75424;50.762;7.178;2024-01-25T05:20:26;102204.06;;;5.63;95.39
85082;BME280;75424;50.762;7.178;2024-01-25T05:22:57;102208.47;;;5.61;95.40
85082;BME280;75424;50.762;7.178;2024-01-25T05:25:22;102207.56;;;5.58;95.37
85082;BME280;75424;50.762;7.178;2024-01-25T05:27:48;102213.72;;;5.49;95.08
85082;BME280;75424;50.762;7.178;2024-01-25T05:30:13;102203.16;;;5.46;95.37
85082;BME280;75424;50.762;7.178;2024-01-25T05:32:39;102204.91;;;5.38;95.54
85082;BME280;75424;50.762;7.178;2024-01-25T05:35:04;102204.00;;;5.30;95.61
85082;BME280;75424;50.762;7.178;2024-01-25T05:37:30;102205.75;;;5.39;96.49
85082;BME280;75424;50.762;7.178;2024-01-25T05:39:55;102210.16;;;5.44;96.43
85082;BME280;75424;50.762;7.178;2024-01-25T05:42:21;102211.06;;;5.37;96.08
85082;BME280;75424;50.762;7.178;2024-01-25T05:44:46;102202.22;;;5.32;96.85
85082;BME280;75424;50.762;7.178;2024-01-25T05:47:11;102218.00;;;5.19;96.19
85082;BME280;75424;50.762;7.178;2024-01-25T05:49:37;102210.13;;;5.29;96.48
85082;BME280;75424;50.762;7.178;2024-01-25T05:52:02;102210.13;;;5.25;96.84
85082;BME280;75424;50.762;7.178;2024-01-25T05:54:28;102208.34;;;5.15;96.33
85082;BME280;75424;50.762;7.178;2024-01-25T05:56:53;102217.09;;;5.12;96.20
85082;BME280;75424;50.762;7.178;2024-01-25T05:59:19;102215.31;;;5.04;96.32
85082;BME280;75424;50.762;7.178;2024-01-25T06:01:44;102218.78;;;4.98;96.99
85082;BME280;75424;50.762;7.178;2024-01-25T06:04:09;102226.69;;;4.91;97.03
85082;BME280;75424;50.762;7.178;2024-01-25T06:06:35;102228.38;;;4.80;97.01
85082;BME280;75424;50.762;7.178;2024-01-25T06:09:00;102239.75;;;4.79;97.42
85082;BME280;75424;50.762;7.178;2024-01-25T06:11:25;102226.53;;;4.68;96.61
85082;BME280;75424;50.762;7.178;2024-01-25T06:13:51;102237.06;;;4.62;97.23
85082;BME280;75424;50.762;7.178;2024-01-25T06:16:16;102238.75;;;4.53;97.08
85082;BME280;75424;50.762;7.178;2024-01-25T06:18:41;102239.56;;;4.46;97.50
85082;BME280;75424;50.762;7.178;2024-01-25T06:21:07;102236.88;;;4.40;97.42
85082;BME280;75424;50.762;7.178;2024-01-25T06:23:32;102233.41;;;4.45;97.25
85082;BME280;75424;50.762;7.178;2024-01-25T06:25:57;102237.78;;;4.45;97.38
85082;BME280;75424;50.762;7.178;2024-01-25T06:28:23;102240.41;;;4.39;96.68
85082;BME280;75424;50.762;7.178;2024-01-25T06:30:48;102239.47;;;4.35;97.92
85082;BME280;75424;50.762;7.178;2024-01-25T06:33:13;102246.44;;;4.29;97.39
85082;BME280;75424;50.762;7.178;2024-01-25T06:35:39;102254.31;;;4.21;97.56
85082;BME280;75424;50.762;7.178;2024-01-25T06:38:04;102264.03;;;4.34;97.89
85082;BME280;75424;50.762;7.178;2024-01-25T06:40:29;102270.13;;;4.29;97.17
85082;BME280;75424;50.762;7.178;2024-01-25T06:42:55;102281.53;;;4.29;97.06
85082;BME280;75424;50.762;7.178;2024-01-25T06:45:20;102274.47;;;4.22;97.14
85082;BME280;75424;50.762;7.178;2024-01-25T06:47:45;102277.88;;;4.12;96.90
85082;BME280;75424;50.762;7.178;2024-01-25T06:50:11;102276.91;;;4.03;96.97
85082;BME280;75424;50.762;7.178;2024-01-25T06:52:36;102287.34;;;3.92;96.97
85082;BME280;75424;50.762;7.178;2024-01-25T06:55:02;102293.47;;;3.91;97.78
85082;BME280;75424;50.762;7.178;2024-01-25T06:57:27;102278.44;;;3.79;97.29
85082;BME280;75424;50.762;7.178;2024-01-25T06:59:53;102288.94;;;3.78;97.04
85082;BME280;75424;50.762;7.178;2024-01-25T07:02:18;102281.19;;;3.88;98.25
85082;BME280;75424;50.762;7.178;2024-01-25T07:04:44;102290.91;;;3.98;98.19
85082;BME280;75424;50.762;7.178;2024-01-25T07:07:09;102295.31;;;4.01;98.31
85082;BME280;75424;50.762;7.178;2024-01-25T07:09:34;102302.38;;;4.04;98.06
85082;BME280;75424;50.762;7.178;2024-01-25T07:12:00;102285.72;;;4.05;98.17
85082;BME280;75424;50.762;7.178;2024-01-25T07:14:25;102287.50;;;4.09;98.01
85082;BME280;75424;50.762;7.178;2024-01-25T07:16:50;102297.06;;;3.99;97.76
85082;BME280;75424;50.762;7.178;2024-01-25T07:19:17;102293.47;;;3.89;97.74
85082;BME280;75424;50.762;7.178;2024-01-25T07:21:42;102287.22;;;3.80;97.36
85082;BME280;75424;50.762;7.178;2024-01-25T07:24:10;102286.28;;;3.76;97.61
85082;BME280;75424;50.762;7.178;2024-01-25T07:26:36;102287.97;;;3.70;97.01
85082;BME280;75424;50.762;7.178;2024-01-25T07:29:01;102291.44;;;3.64;97.25
85082;BME280;75424;50.762;7.178;2024-01-25T07:31:27;102297.56;;;3.63;97.71
85082;BME280;75424;50.762;7.178;2024-01-25T07:33:53;102296.63;;;3.57;98.21
85082;BME280;75424;50.762;7.178;2024-01-25T07:36:19;102291.34;;;3.57;98.04
85082;BME280;75424;50.762;7.178;2024-01-25T07:38:44;102303.59;;;3.56;97.57
85082;BME280;75424;50.762;7.178;2024-01-25T07:41:12;102307.16;;;3.61;97.89
85082;BME280;75424;50.762;7.178;2024-01-25T07:43:38;102301.09;;;3.64;98.41
85082;BME280;75424;50.762;7.178;2024-01-25T07:46:03;102311.47;;;3.55;97.71
85082;BME280;75424;50.762;7.178;2024-01-25T07:48:28;102304.38;;;3.48;97.30
85082;BME280;75424;50.762;7.178;2024-01-25T07:50:54;102313.16;;;3.48;96.58
85082;BME280;75424;50.762;7.178;2024-01-25T07:53:19;102314.94;;;3.51;97.76
85082;BME280;75424;50.762;7.178;2024-01-25T07:55:44;102312.41;;;3.58;97.42
85082;BME280;75424;50.762;7.178;2024-01-25T07:58:10;102305.47;;;3.65;97.46
85082;BME280;75424;50.762;7.178;2024-01-25T08:00:35;102300.25;;;3.71;97.97
85082;BME280;75424;50.762;7.178;2024-01-25T08:03:01;102298.63;;;3.82;97.27
85082;BME280;75424;50.762;7.178;2024-01-25T08:05:26;102289.91;;;3.87;97.41
85082;BME280;75424;50.762;7.178;2024-01-25T08:07:51;102286.44;;;3.90;97.32
85082;BME280;75424;50.762;7.178;2024-01-25T08:10:17;102296.16;;;3.97;97.96
85082;BME280;75424;50.762;7.178;2024-01-25T08:12:42;102298.88;;;4.05;97.46
85082;BME280;75424;50.762;7.178;2024-01-25T08:15:09;102309.41;;;4.11;97.32
85082;BME280;75424;50.762;7.178;2024-01-25T08:17:37;102296.38;;;4.21;97.43
85082;BME280;75424;50.762;7.178;2024-01-25T08:20:02;102290.31;;;4.30;97.30
85082;BME280;75424;50.762;7.178;2024-01-25T08:22:29;102300.06;;;4.43;97.45
85082;BME280;75424;50.762;7.178;2024-01-25T08:24:54;102286.13;;;4.57;97.46
85082;BME280;75424;50.762;7.178;2024-01-25T08:27:19;102289.75;;;4.70;97.73
85082;BME280;75424;50.762;7.178;2024-01-25T08:29:45;102293.38;;;4.91;96.72
85082;BME280;75424;50.762;7.178;2024-01-25T08:32:10;102288.19;;;5.03;96.70
85082;BME280;75424;50.762;7.178;2024-01-25T08:34:35;102287.38;;;5.16;97.26
85082;BME280;75424;50.762;7.178;2024-01-25T08:37:01;102279.53;;;5.28;96.62
85082;BME280;75424;50.762;7.178;2024-01-25T08:39:26;102280.44;;;5.38;96.40
85082;BME280;75424;50.762;7.178;2024-01-25T08:41:52;102278.69;;;5.44;96.50
85082;BME280;75424;50.762;7.178;2024-01-25T08:44:17;102282.25;;;5.55;96.08
85082;BME280;75424;50.762;7.178;2024-01-25T08:46:42;102280.53;;;5.57;95.82
85082;BME280;75424;50.762;7.178;2024-01-25T08:49:08;102287.56;;;5.64;95.15
85082;BME280;75424;50.762;7.178;2024-01-25T08:51:35;102286.72;;;5.76;94.17
85082;BME280;75424;50.762;7.178;2024-01-25T08:54:00;102283.25;;;5.83;93.83
85082;BME280;75424;50.762;7.178;2024-01-25T08:56:26;102277.97;;;5.92;93.27
85082;BME280;75424;50.762;7.178;2024-01-25T08:58:51;102287.69;;;6.03;91.41
85082;BME280;75424;50.762;7.178;2024-01-25T09:01:17;102284.16;;;6.06;92.48
85082;BME280;75424;50.762;7.178;2024-01-25T09:03:42;102292.97;;;6.15;93.20
85082;BME280;75424;50.762;7.178;2024-01-25T09:06:08;102287.69;;;6.30;89.42
85082;BME280;75424;50.762;7.178;2024-01-25T09:08:33;102285.94;;;6.38;89.07
85082;BME280;75424;50.762;7.178;2024-01-25T09:10:58;102287.69;;;6.47;88.85
85082;BME280;75424;50.762;7.178;2024-01-25T09:13:24;102282.41;;;6.51;89.34
85082;BME280;75424;50.762;7.178;2024-01-25T09:15:49;102285.91;;;6.55;91.52
85082;BME280;75424;50.762;7.178;2024-01-25T09:18:15;102287.69;;;6.60;91.73
85082;BME280;75424;50.762;7.178;2024-01-25T09:20:40;102277.97;;;6.68;89.84
85082;BME280;75424;50.762;7.178;2024-01-25T09:23:06;102277.97;;;6.71;89.62
85082;BME280;75424;50.762;7.178;2024-01-25T09:25:32;102279.72;;;6.75;89.40
85082;BME280;75424;50.762;7.178;2024-01-25T09:27:58;102291.19;;;6.79;91.20
85082;BME280;75424;50.762;7.178;2024-01-25T09:30:23;102285.00;;;6.96;88.10
85082;BME280;75424;50.762;7.178;2024-01-25T09:32:49;102291.13;;;6.98;88.67
85082;BME280;75424;50.762;7.178;2024-01-25T09:35:14;102290.28;;;6.96;88.07
85082;BME280;75424;50.762;7.178;2024-01-25T09:37:39;102292.03;;;6.91;88.66
85082;BME280;75424;50.762;7.178;2024-01-25T09:40:06;102301.72;;;6.88;88.17
85082;BME280;75424;50.762;7.178;2024-01-25T09:42:31;102302.63;;;6.82;88.68
85082;BME280;75424;50.762;7.178;2024-01-25T09:44:57;102310.56;;;6.87;88.67
85082;BME280;75424;50.762;7.178;2024-01-25T09:47:22;102306.13;;;6.92;88.16
85082;BME280;75424;50.762;7.178;2024-01-25T09:49:48;102299.06;;;6.98;88.60
85082;BME280;75424;50.762;7.178;2024-01-25T09:52:14;102297.28;;;7.08;88.22
85082;BME280;75424;50.762;7.178;2024-01-25T09:54:40;102298.13;;;7.23;86.09
85082;BME280;75424;50.762;7.178;2024-01-25T09:57:17;102298.06;;;7.34;87.13
85082;BME280;75424;50.762;7.178;2024-01-25T09:59:47;102313.03;;;7.42;86.12
85082;BME280;75424;50.762;7.178;2024-01-25T10:02:15;102318.25;;;7.53;85.25
85082;BME280;75424;50.762;7.178;2024-01-25T10:04:40;102310.25;;;7.66;83.86
85082;BME280;75424;50.762;7.178;2024-01-25T10:07:06;102311.09;;;7.74;83.14
85082;BME280;75424;50.762;7.178;2024-01-25T10:09:38;102308.44;;;7.78;82.68
85082;BME280;75424;50.762;7.178;2024-01-25T10:12:04;102315.47;;;7.85;82.01
85082;BME280;75424;50.762;7.178;2024-01-25T10:14:30;102323.38;;;7.89;82.28
85082;BME280;75424;50.762;7.178;2024-01-25T10:17:00;102332.22;;;7.88;82.67
85082;BME280;75424;50.762;7.178;2024-01-25T10:19:26;102333.06;;;7.90;82.48
85082;BME280;75424;50.762;7.178;2024-01-25T10:21:51;102324.22;;;7.93;83.10
85082;BME280;75424;50.762;7.178;2024-01-25T10:24:16;102321.53;;;8.03;82.52
85082;BME280;75424;50.762;7.178;2024-01-25T10:26:42;102323.28;;;8.06;82.60
85082;BME280;75424;50.762;7.178;2024-01-25T10:29:10;102302.88;;;8.21;82.46
85082;BME280;75424;50.762;7.178;2024-01-25T10:31:38;102312.53;;;8.33;81.70
85082;BME280;75424;50.762;7.178;2024-01-25T10:34:07;102305.41;;;8.38;80.98
85082;BME280;75424;50.762;7.178;2024-01-25T10:36:34;102289.53;;;8.38;80.08
85082;BME280;75424;50.762;7.178;2024-01-25T10:39:03;102301.88;;;8.39;80.84
85082;BME280;75424;50.762;7.178;2024-01-25T10:41:30;102293.91;;;8.42;80.79
85082;BME280;75424;50.762;7.178;2024-01-25T10:43:56;102287.69;;;8.44;80.76
85082;BME280;75424;50.762;7.178;2024-01-25T10:46:22;102292.06;;;8.50;80.25
85082;BME280;75424;50.762;7.178;2024-01-25T10:48:48;102283.25;;;8.52;80.08
85082;BME280;75424;50.762;7.178;2024-01-25T10:51:15;102281.31;;;8.65;80.54
85082;BME280;75424;50.762;7.178;2024-01-25T10:53:44;102279.47;;;8.74;78.13
85082;BME280;75424;50.762;7.178;2024-01-25T10:56:09;102279.44;;;8.79;78.94
85082;BME280;75424;50.762;7.178;2024-01-25T10:58:34;102281.16;;;8.81;78.05
85082;BME280;75424;50.762;7.178;2024-01-25T11:01:03;102269.66;;;8.84;77.65
85082;BME280;75424;50.762;7.178;2024-01-25T11:03:29;102268.72;;;8.88;78.04
85082;BME280;75424;50.762;7.178;2024-01-25T11:06:08;102256.31;;;8.91;77.16
85082;BME280;75424;50.762;7.178;2024-01-25T11:08:40;102255.41;;;8.94;73.00
85082;BME280;75424;50.762;7.178;2024-01-25T11:11:06;102251.81;;;9.01;73.52
85082;BME280;75424;50.762;7.178;2024-01-25T11:13:33;102251.75;;;9.05;72.94
85082;BME280;75424;50.762;7.178;2024-01-25T11:15:58;102236.69;;;9.09;73.69
85082;BME280;75424;50.762;7.178;2024-01-25T11:18:27;102242.84;;;9.11;72.68
85082;BME280;75424;50.762;7.178;2024-01-25T11:20:53;102237.50;;;9.14;71.20
85082;BME280;75424;50.762;7.178;2024-01-25T11:23:31;102239.25;;;9.16;72.45
85082;BME280;75424;50.762;7.178;2024-01-25T11:25:57;102230.38;;;9.17;72.34
85082;BME280;75424;50.762;7.178;2024-01-25T11:28:22;102225.03;;;9.22;71.39
85082;BME280;75424;50.762;7.178;2024-01-25T11:30:49;102216.97;;;9.28;70.97
85082;BME280;75424;50.762;7.178;2024-01-25T11:33:14;102222.25;;;9.31;69.79
85082;BME280;75424;50.762;7.178;2024-01-25T11:35:40;102223.03;;;9.37;70.09
85082;BME280;75424;50.762;7.178;2024-01-25T11:38:08;102214.97;;;9.46;69.55
85082;BME280;75424;50.762;7.178;2024-01-25T11:40:34;102206.84;;;9.58;68.03
85082;BME280;75424;50.762;7.178;2024-01-25T11:43:01;102201.38;;;9.69;68.02
85082;BME280;75424;50.762;7.178;2024-01-25T11:45:27;102200.19;;;9.86;68.22
85082;BME280;75424;50.762;7.178;2024-01-25T11:47:52;102188.59;;;9.92;66.28
85082;BME280;75424;50.762;7.178;2024-01-25T11:50:18;102193.72;;;10.05;67.19
85082;BME280;75424;50.762;7.178;2024-01-25T11:52:43;102195.34;;;10.15;66.30
85082;BME280;75424;50.762;7.178;2024-01-25T11:55:10;102192.50;;;10.24;65.90
85082;BME280;75424;50.762;7.178;2024-01-25T11:57:40;102194.19;;;10.30;65.21
85082;BME280;75424;50.762;7.178;2024-01-25T12:00:18;102200.22;;;10.39;64.62
85082;BME280;75424;50.762;7.178;2024-01-25T12:02:43;102206.22;;;10.49;63.85
85082;BME280;75424;50.762;7.178;2024-01-25T12:05:10;102199.03;;;10.55;63.95
85082;BME280;75424;50.762;7.178;2024-01-25T12:07:35;102186.59;;;10.57;63.11
85082;BME280;75424;50.762;7.178;2024-01-25T12:10:09;102176.75;;;10.61;63.75
85082;BME280;75424;50.762;7.178;2024-01-25T12:12:36;102178.34;;;10.71;63.06
85082;BME280;75424;50.762;7.178;2024-01-25T12:15:06;102173.00;;;10.72;63.50
85082;BME280;75424;50.762;7.178;2024-01-25T12:17:33;102157.94;;;10.73;63.58
85082;BME280;75424;50.762;7.178;2024-01-25T12:20:02;102161.50;;;10.70;61.96
85082;BME280;75424;50.762;7.178;2024-01-25T12:22:27;102155.19;;;10.76;61.21
85082;BME280;75424;50.762;7.178;2024-01-25T12:24:54;102156.03;;;10.79;61.59
85082;BME280;75424;50.762;7.178;2024-01-25T12:27:21;102144.44;;;10.82;60.91
85082;BME280;75424;50.762;7.178;2024-01-25T12:29:47;102137.25;;;10.85;61.11
85082;BME280;75424;50.762;7.178;2024-01-25T12:32:13;102147.16;;;10.79;60.86
85082;BME280;75424;50.762;7.178;2024-01-25T12:34:39;102150.00;;;10.71;60.63
85082;BME280;75424;50.762;7.178;2024-01-25T12:37:06;102143.97;;;10.62;60.36
85082;BME280;75424;50.762;7.178;2024-01-25T12:39:31;102147.41;;;10.67;60.06
85082;BME280;75424;50.762;7.178;2024-01-25T12:41:57;102136.66;;;10.73;60.56
85082;BME280;75424;50.762;7.178;2024-01-25T12:44:22;102129.47;;;10.78;60.39
85082;BME280;75424;50.762;7.178;2024-01-25T12:46:48;102114.19;;;10.87;60.15
85082;BME280;75424;50.762;7.178;2024-01-25T12:49:13;102122.81;;;10.98;60.66
85082;BME280;75424;50.762;7.178;2024-01-25T12:51:39;102143.06;;;11.05;60.21
85082;BME280;75424;50.762;7.178;2024-01-25T12:54:05;102123.50;;;11.08;60.24
85082;BME280;75424;50.762;7.178;2024-01-25T12:56:30;102118.16;;;11.09;59.67